Time;durP1;ratioP1;P1;durP2;ratioP2;P2;SDS_P1;SDS_P2;PMS_P1;PMS_P2;Temp;Humidity;BMP_temperature;BMP_pressure;BME280_temperature;BME280_humidity;BME280_pressure;Samples;Min_cycle;Max_cycle;Signal;HPM_P1;HPM_P2
2022/07/22 00:00:52;;;;;;;7.45;6.70;;;;;;;33.27;43.20;100488.13;4216466;28;20097;-57
2022/07/22 00:02:53;;;;;;;9.80;7.20;;;;;;;33.31;43.16;100506.03;4196154;28;20048;-58
2022/07/22 00:04:54;;;;;;;7.78;6.75;;;;;;;33.23;42.91;100490.06;4199264;28;20056;-58
2022/07/22 00:06:58;;;;;;;8.02;7.25;;;;;;;33.30;43.21;100517.72;4200325;28;20036;-58
2022/07/22 00:09:03;;;;;;;7.40;6.80;;;;;;;33.30;43.45;100512.06;4216140;28;20032;-57
2022/07/22 00:11:04;;;;;;;;;;;;;;;33.29;43.52;100516.91;4216840;28;20036;-58
2022/07/22 00:13:06;;;;;;;8.23;7.43;;;;;;;33.35;43.04;100514.56;4216636;28;19916;-57
2022/07/22 00:15:08;;;;;;;8.77;7.45;;;;;;;33.34;43.10;100512.94;4216215;28;20086;-57
2022/07/22 00:17:09;;;;;;;7.47;6.78;;;;;;;33.32;43.38;100510.50;4216776;28;20089;-58
2022/07/22 00:19:11;;;;;;;7.53;6.53;;;;;;;33.32;43.33;100521.00;4215976;28;20048;-58
2022/07/22 00:21:12;;;;;;;8.15;7.32;;;;;;;33.31;43.06;100519.34;4216139;28;20437;-58
2022/07/22 00:23:14;;;;;;;8.23;7.30;;;;;;;33.30;43.40;100521.38;4216047;28;20044;-59
2022/07/22 00:25:18;;;;;;;9.13;7.15;;;;;;;33.23;43.33;100509.91;4216336;28;20093;-59
2022/07/22 00:27:19;;;;;;;7.70;6.90;;;;;;;33.29;43.23;100516.91;4216578;28;20093;-59
2022/07/22 00:29:21;;;;;;;8.65;7.78;;;;;;;33.27;43.17;100513.63;4214561;28;20040;-60
2022/07/22 00:31:22;;;;;;;8.63;7.47;;;;;;;33.28;43.57;100515.28;4215951;28;20035;-59
2022/07/22 00:33:23;;;;;;;8.50;7.22;;;;;;;33.29;43.24;100518.91;4215945;28;20036;-59
2022/07/22 00:35:27;;;;;;;7.95;7.22;;;;;;;33.28;43.24;100526.63;4216487;28;20040;-59
2022/07/22 00:37:29;;;;;;;7.90;7.10;;;;;;;33.28;43.34;100526.63;4211557;28;20377;-59
2022/07/22 00:39:30;;;;;;;7.32;6.72;;;;;;;33.24;43.19;100525.72;4198928;28;20533;-59
2022/07/22 00:41:35;;;;;;;7.78;7.18;;;;;;;33.23;43.44;100523.28;4198057;28;20045;-59
2022/07/22 00:44:02;;;;;;;7.93;7.22;;;;;;;33.25;43.75;100535.88;4199356;28;20048;-59
2022/07/22 00:46:04;;;;;;;8.05;7.25;;;;;;;33.28;43.36;100534.31;4199406;28;20044;-60
2022/07/22 00:48:05;;;;;;;8.07;7.28;;;;;;;33.28;43.37;100543.63;4199447;28;20379;-59
2022/07/22 00:50:07;;;;;;;7.70;7.03;;;;;;;33.28;43.50;100546.47;4199058;28;20097;-60
2022/07/22 00:52:08;;;;;;;8.07;7.38;;;;;;;33.27;43.51;100550.50;4199077;28;20554;-60
2022/07/22 00:54:10;;;;;;;7.90;7.15;;;;;;;33.27;43.38;100550.50;4198638;28;20032;-57
2022/07/22 00:56:12;;;;;;;11.15;7.60;;;;;;;33.23;43.58;100546.78;4199396;28;20063;-58
2022/07/22 00:58:16;;;;;;;8.98;7.05;;;;;;;33.23;43.72;100546.78;4199129;28;20036;-58
2022/07/22 01:00:20;;;;;;;8.40;6.88;;;;;;;33.26;43.88;100551.69;4198875;28;20032;-58
2022/07/22 01:02:22;;;;;;;8.45;6.85;;;;;;;33.27;43.62;100547.66;4213395;28;20109;-58
2022/07/22 01:04:26;;;;;;;8.60;7.70;;;;;;;33.26;43.62;100554.50;4215227;28;20036;-57
2022/07/22 01:06:29;;;;;;;8.32;7.53;;;;;;;33.27;43.94;100553.34;4215872;28;20105;-58
2022/07/22 01:08:33;;;;;;;8.27;7.55;;;;;;;33.27;43.75;100564.69;4215473;28;20433;-58
2022/07/22 01:10:37;;;;;;;8.10;7.30;;;;;;;33.28;43.86;100572.00;4215048;28;20039;-58
2022/07/22 01:12:38;;;;;;;;;;;;;;;33.27;43.84;100575.22;4215682;28;20438;-57
2022/07/22 01:14:39;;;;;;;8.52;7.63;;;;;;;33.31;43.88;100570.41;4215544;28;19965;-58
2022/07/22 01:16:46;;;;;;;8.43;6.85;;;;;;;33.31;43.99;100576.91;4215340;28;20101;-58
2022/07/22 01:18:50;;;;;;;7.72;6.85;;;;;;;33.29;43.95;100573.63;4214988;28;20032;-58
2022/07/22 01:20:52;;;;;;;8.07;7.30;;;;;;;33.30;44.05;100586.59;4215570;28;20040;-58
2022/07/22 01:22:53;;;;;;;8.25;7.22;;;;;;;33.31;44.24;100582.59;4215219;28;20089;-58
2022/07/22 01:24:54;;;;;;;9.35;7.10;;;;;;;33.30;44.31;100595.09;4215243;28;20082;-57
2022/07/22 01:26:56;;;;;;;9.13;7.00;;;;;;;33.30;44.23;100586.59;4202239;28;20098;-57
2022/07/22 01:28:57;;;;;;;7.72;7.03;;;;;;;33.30;44.44;100594.28;4197784;28;20134;-57
2022/07/22 01:30:58;;;;;;;8.63;7.80;;;;;;;33.29;44.26;100587.78;4199983;28;20090;-57
2022/07/22 01:33:02;;;;;;;8.05;7.35;;;;;;;33.30;44.45;100597.94;4214955;28;20509;-58
2022/07/22 01:35:10;;;;;;;8.02;7.22;;;;;;;33.31;44.67;100598.75;4215001;28;20036;-58
2022/07/22 01:37:14;;;;;;;8.20;7.40;;;;;;;33.31;44.91;100601.59;4214514;28;20086;-57
2022/07/22 01:41:38;;;;;;;7.97;7.18;;;;;;;33.31;44.92;100613.78;4180649;28;20045;-58
2022/07/22 01:43:39;;;;;;;8.45;7.57;;;;;;;33.31;45.06;100610.94;4181815;28;20033;-58
2022/07/22 01:45:43;;;;;;;11.60;8.15;;;;;;;33.32;45.03;100620.28;4181856;28;20099;-57
2022/07/22 01:47:45;;;;;;;9.60;8.60;;;;;;;33.31;44.90;100622.28;4181788;28;20043;-58
2022/07/22 01:49:46;;;;;;;10.48;8.65;;;;;;;33.31;45.21;100619.47;4181388;28;20041;-58
2022/07/22 01:51:48;;;;;;;9.82;8.77;;;;;;;33.25;45.50;100612.41;4181645;28;20040;-58
2022/07/22 01:53:49;;;;;;;11.55;9.27;;;;;;;33.32;45.48;100623.94;4181694;28;20037;-57
2022/07/22 01:55:51;;;;;;;11.10;9.80;;;;;;;33.31;45.44;100622.28;4195696;28;20021;-57
2022/07/22 01:57:53;;;;;;;11.43;10.15;;;;;;;33.31;45.52;100619.47;4198200;28;20040;-57
2022/07/22 01:59:54;;;;;;;11.32;10.23;;;;;;;33.30;45.64;100614.94;4197741;28;20094;-58
2022/07/22 02:01:58;;;;;;;13.35;11.35;;;;;;;33.30;45.67;100620.63;4206415;28;20108;-57
2022/07/22 02:03:59;;;;;;;15.75;12.68;;;;;;;33.32;45.75;100629.59;4213662;28;20097;-57
2022/07/22 02:06:01;;;;;;;14.35;12.85;;;;;;;33.32;45.70;100629.59;4214400;28;20106;-59
2022/07/22 02:08:09;;;;;;;14.50;13.10;;;;;;;33.32;46.07;100635.28;4214456;28;20048;-57
2022/07/22 02:10:10;;;;;;;14.77;13.27;;;;;;;33.31;45.84;100633.63;4214049;28;20044;-58
2022/07/22 02:12:11;;;;;;;15.85;14.25;;;;;;;33.32;45.79;100640.94;4210179;28;20036;-57
2022/07/22 02:14:13;;;;;;;17.25;15.27;;;;;;;33.33;46.32;100645.41;4197491;28;20044;-58
2022/07/22 02:16:14;;;;;;;18.75;16.75;;;;;;;33.32;45.99;100640.94;4197589;28;20446;-57
2022/07/22 02:18:17;;;;;;;16.33;14.43;;;;;;;33.32;46.43;100652.28;4197547;28;20110;-57
2022/07/22 02:20:19;;;;;;;15.30;13.70;;;;;;;33.33;46.14;100641.75;4196915;28;20361;-57
2022/07/22 02:22:20;;;;;;;15.73;13.98;;;;;;;33.33;46.14;100650.25;4196949;28;20078;-58
2022/07/22 02:24:24;;;;;;;15.95;14.25;;;;;;;33.32;46.12;100652.28;4197514;28;20381;-58
2022/07/22 02:26:26;;;;;;;16.92;15.23;;;;;;;33.32;46.28;100652.28;4197417;28;20044;-58
2022/07/22 02:28:27;;;;;;;15.02;13.55;;;;;;;33.32;46.38;100640.94;4196656;28;20037;-58
2022/07/22 02:30:30;;;;;;;16.30;14.20;;;;;;;33.33;46.20;100642.56;4196872;28;20048;-58
2022/07/22 02:32:47;;;;;;;17.23;15.15;;;;;;;33.32;46.22;100643.78;4180932;28;20037;-57
2022/07/22 02:34:48;;;;;;;18.90;15.43;;;;;;;33.32;46.67;100652.28;4180812;28;20539;-58
2022/07/22 02:36:50;;;;;;;16.08;14.38;;;;;;;33.31;46.46;100647.81;4180956;28;20110;-57
2022/07/22 02:38:51;;;;;;;18.27;14.10;;;;;;;33.32;46.82;100642.97;4180827;28;20357;-57
2022/07/22 02:40:53;;;;;;;15.80;13.38;;;;;;;33.29;47.01;100635.19;4197642;28;20399;-57
2022/07/22 02:42:58;;;;;;;14.88;13.13;;;;;;;33.32;46.72;100651.47;4197061;28;20078;-58
2022/07/22 02:44:59;;;;;;;14.90;12.65;;;;;;;33.31;46.75;100647.81;4197500;28;20032;-57
2022/07/22 02:47:03;;;;;;;14.15;12.05;;;;;;;33.31;46.74;100647.81;4197480;28;20409;-57
2022/07/22 02:49:05;;;;;;;15.20;13.20;;;;;;;33.31;47.16;100647.81;4197065;28;20032;-58
2022/07/22 02:51:06;;;;;;;12.73;11.50;;;;;;;33.32;46.68;100643.78;4196819;28;20049;-58
2022/07/22 02:53:07;;;;;;;14.50;12.98;;;;;;;33.31;46.82;100647.81;4196342;28;20098;-57
2022/07/22 02:55:09;;;;;;;13.23;11.80;;;;;;;33.32;46.76;100640.94;4197258;28;20044;-58
2022/07/22 02:57:10;;;;;;;13.70;12.27;;;;;;;33.32;47.08;100654.31;4197246;28;20082;-57
2022/07/22 02:59:11;;;;;;;14.18;12.70;;;;;;;33.28;47.21;100662.72;4196957;28;20045;-57
2022/07/22 03:01:16;;;;;;;13.80;12.10;;;;;;;33.34;47.00;100671.75;4202890;28;20036;-58
2022/07/22 03:03:17;;;;;;;12.55;11.05;;;;;;;33.33;46.83;100662.44;4212749;28;20040;-58
2022/07/22 03:05:18;;;;;;;14.18;11.48;;;;;;;33.32;46.85;100672.13;4213425;28;20048;-57
2022/07/22 03:07:20;;;;;;;12.00;10.80;;;;;;;33.32;46.92;100657.97;4213911;28;20069;-57
2022/07/22 03:09:21;;;;;;;12.07;10.80;;;;;;;33.32;46.79;100666.47;4213182;28;20094;-58
2022/07/22 03:11:23;;;;;;;12.35;10.50;;;;;;;33.32;47.12;100663.63;4214020;28;20070;-58
2022/07/22 03:13:24;;;;;;;11.70;10.10;;;;;;;33.31;47.18;100662.00;4213905;28;20426;-58
2022/07/22 03:15:25;;;;;;;13.45;10.80;;;;;;;33.28;47.06;100662.72;4213921;28;20036;-57
2022/07/22 03:17:33;;;;;;;10.57;9.57;;;;;;;33.31;46.95;100664.84;4213271;28;20158;-57
2022/07/22 03:19:35;;;;;;;12.23;10.13;;;;;;;33.30;47.25;100670.84;4180224;28;20202;-57
2022/07/22 03:21:38;;;;;;;10.98;9.40;;;;;;;33.28;47.24;100665.56;4180464;28;20033;-58
2022/07/22 03:23:40;;;;;;;10.50;9.50;;;;;;;33.30;47.13;100671.66;4183311;28;20036;-57
2022/07/22 03:25:41;;;;;;;10.73;9.63;;;;;;;33.24;47.49;100659.00;4192943;28;20716;-58
2022/07/22 03:27:42;;;;;;;10.77;9.32;;;;;;;33.31;47.45;100670.50;4193147;28;20152;-58
2022/07/22 03:29:44;;;;;;;11.18;9.13;;;;;;;33.28;47.28;100661.91;4195948;28;20089;-58
2022/07/22 03:31:45;;;;;;;11.32;10.07;;;;;;;33.32;47.59;100674.16;4205427;28;20047;-59
2022/07/22 03:33:46;;;;;;;11.80;9.25;;;;;;;33.32;47.67;100668.47;4213794;28;20036;-58
2022/07/22 03:35:50;;;;;;;11.52;9.18;;;;;;;33.33;47.59;100670.13;4214012;28;20040;-60
2022/07/22 03:37:52;;;;;;;10.32;9.05;;;;;;;33.31;47.66;100667.66;4214035;28;20036;-57
2022/07/22 03:39:56;;;;;;;11.23;8.25;;;;;;;33.31;48.59;100662.00;4213569;28;20455;-57
2022/07/22 03:42:00;;;;;;;8.70;7.80;;;;;;;33.31;48.90;100667.66;4213583;28;20093;-58
2022/07/22 03:44:01;;;;;;;12.23;8.10;;;;;;;33.33;49.04;100676.59;4213821;28;20405;-61
2022/07/22 03:46:12;;;;;;;10.68;7.85;;;;;;;33.32;49.14;100674.16;4211142;28;20097;-60
2022/07/22 03:48:18;;;;;;;13.98;7.95;;;;;;;33.29;49.50;100674.88;4212886;28;20040;-58
2022/07/22 03:50:20;;;;;;;9.80;8.02;;;;;;;33.27;49.61;100669.59;4213663;28;20081;-59
2022/07/22 03:52:22;;;;;;;14.18;7.60;;;;;;;33.31;49.70;100675.31;4213936;28;20505;-60
2022/07/22 03:54:23;;;;;;;8.65;7.32;;;;;;;33.28;50.13;100674.06;4213629;28;20043;-58
2022/07/22 03:56:25;;;;;;;11.63;8.07;;;;;;;33.29;49.78;100677.72;4214021;28;20489;-58
2022/07/22 03:58:28;;;;;;;10.57;7.90;;;;;;;33.29;50.05;100670.03;4213500;28;20109;-58
2022/07/22 04:00:30;;;;;;;11.35;7.65;;;;;;;33.29;49.99;100675.72;4213414;28;20040;-58
2022/07/22 04:02:31;;;;;;;10.65;8.18;;;;;;;33.30;50.57;100677.34;4199282;28;20113;-58
2022/07/22 04:04:33;;;;;;;11.32;7.97;;;;;;;33.29;50.57;100674.88;4199550;28;20063;-58
2022/07/22 04:06:34;;;;;;;8.82;7.93;;;;;;;33.27;50.46;100678.09;4199999;28;20102;-58
2022/07/22 04:08:35;;;;;;;8.52;7.35;;;;;;;33.27;50.37;100678.09;4200014;28;20045;-58
2022/07/22 04:10:37;;;;;;;9.32;7.25;;;;;;;33.26;50.45;100679.28;4199848;28;20174;-58
2022/07/22 04:12:39;;;;;;;8.38;7.20;;;;;;;33.26;50.44;100682.13;4199846;28;20037;-58
2022/07/22 04:14:44;;;;;;;8.15;7.20;;;;;;;33.25;50.58;100677.66;4200105;28;20086;-57
2022/07/22 04:16:50;;;;;;;8.27;7.47;;;;;;;33.25;50.27;100686.16;4199990;28;20097;-58
2022/07/22 04:18:52;;;;;;;7.93;6.68;;;;;;;33.23;50.57;100674.38;4199679;28;20477;-58
2022/07/22 04:20:56;;;;;;;10.25;7.30;;;;;;;33.24;50.88;100683.69;4199830;28;20037;-58
2022/07/22 04:22:57;;;;;;;10.68;7.05;;;;;;;33.09;50.85;100648.56;4199852;28;20094;-58
2022/07/22 04:24:58;;;;;;;11.52;7.60;;;;;;;33.17;50.82;100669.34;4199484;28;20040;-58
2022/07/22 04:27:02;;;;;;;10.52;7.85;;;;;;;33.19;50.77;100670.63;4199623;28;20558;-58
2022/07/22 04:29:07;;;;;;;8.63;7.43;;;;;;;33.22;50.96;100680.41;4199518;28;20518;-59
2022/07/22 04:31:09;;;;;;;11.80;7.38;;;;;;;33.22;51.11;100681.25;4201937;28;20631;-58
2022/07/22 04:33:10;;;;;;;9.02;6.93;;;;;;;33.20;50.67;100683.63;4216350;28;20044;-58
2022/07/22 04:35:11;;;;;;;10.00;7.38;;;;;;;33.21;50.78;100682.41;4216496;28;20521;-59
2022/07/22 04:37:13;;;;;;;12.10;7.72;;;;;;;33.21;50.72;100678.75;4215974;28;20097;-58
2022/07/22 04:39:14;;;;;;;8.98;7.05;;;;;;;33.20;50.57;100683.63;4216107;28;20097;-58
2022/07/22 04:41:15;;;;;;;9.85;7.03;;;;;;;33.21;50.63;100678.75;4216534;28;20093;-58
2022/07/22 04:43:19;;;;;;;8.00;6.57;;;;;;;33.20;50.63;100672.28;4216256;28;20040;-59
2022/07/22 04:45:20;;;;;;;11.73;7.35;;;;;;;33.20;50.79;100682.78;4216167;28;20110;-58
2022/07/22 04:47:22;;;;;;;10.98;7.90;;;;;;;33.20;50.70;100689.28;4216197;28;20032;-58
2022/07/22 04:49:25;;;;;;;9.82;7.55;;;;;;;33.16;50.51;100674.22;4215781;28;20089;-58
2022/07/22 04:51:27;;;;;;;7.32;6.35;;;;;;;33.18;50.60;100677.50;4216305;28;20044;-58
2022/07/22 04:53:28;;;;;;;6.88;6.07;;;;;;;33.17;50.39;100678.69;4215857;28;20533;-58
2022/07/22 04:55:30;;;;;;;8.18;6.20;;;;;;;33.18;50.49;100685.19;4216129;28;20433;-58
2022/07/22 04:57:31;;;;;;;10.00;6.53;;;;;;;33.17;50.39;100687.19;4215878;28;20040;-58
2022/07/22 04:59:33;;;;;;;7.80;7.00;;;;;;;33.09;50.37;100682.56;4215402;28;20035;-58
2022/07/22 05:01:34;;;;;;;8.60;6.55;;;;;;;33.14;50.36;100694.44;4205899;28;20037;-58
2022/07/22 05:03:38;;;;;;;8.20;6.57;;;;;;;33.10;50.26;100695.53;4198674;28;20226;-58
2022/07/22 05:05:40;;;;;;;9.60;6.82;;;;;;;33.14;50.52;100699.28;4198966;28;20396;-58
2022/07/22 05:07:41;;;;;;;7.57;6.50;;;;;;;33.14;50.50;100707.78;4198747;28;20070;-59
2022/07/22 05:09:42;;;;;;;8.38;7.22;;;;;;;33.12;50.53;100698.81;4198730;28;20110;-58
2022/07/22 05:11:46;;;;;;;7.70;6.30;;;;;;;33.11;50.42;100697.19;4198928;28;20488;-58
2022/07/22 05:13:48;;;;;;;8.45;6.43;;;;;;;33.10;50.59;100690.69;4198990;28;20098;-58
2022/07/22 05:15:49;;;;;;;7.55;6.28;;;;;;;33.11;50.65;100702.84;4198750;28;20411;-58
2022/07/22 05:17:56;;;;;;;9.88;6.90;;;;;;;33.09;50.29;100706.06;4199044;28;20074;-58
2022/07/22 05:19:58;;;;;;;9.18;6.70;;;;;;;33.08;50.62;100697.91;4198578;28;20101;-58
2022/07/22 05:21:59;;;;;;;8.98;7.10;;;;;;;33.07;50.38;100690.59;4198881;28;20044;-58
2022/07/22 05:24:03;;;;;;;9.98;6.93;;;;;;;33.00;50.62;100687.63;4198727;28;20094;-58
2022/07/22 05:26:08;;;;;;;10.25;6.82;;;;;;;33.03;50.30;100692.53;4198773;28;20040;-58
2022/07/22 05:28:12;;;;;;;;;;;;;;;33.04;50.38;100691.38;4199537;28;20463;-58
2022/07/22 05:30:13;;;;;;;10.32;5.95;;;;;;;32.88;50.41;100666.69;4198537;28;20363;-58
2022/07/22 05:32:17;;;;;;;9.48;6.35;;;;;;;33.07;50.20;100708.44;4210806;28;20056;-58
2022/07/22 05:34:22;;;;;;;8.25;7.10;;;;;;;33.07;49.64;100701.94;4215394;28;20471;-58
2022/07/22 05:36:23;;;;;;;10.52;7.07;;;;;;;33.04;50.47;100691.38;4215440;28;20393;-58
2022/07/22 05:38:24;;;;;;;7.60;6.35;;;;;;;33.06;50.31;100700.31;4215199;28;20429;-58
2022/07/22 05:40:26;;;;;;;8.05;6.82;;;;;;;33.06;50.52;100700.31;4203795;28;20465;-58
2022/07/22 05:42:27;;;;;;;8.43;6.90;;;;;;;33.05;50.35;100704.34;4198595;28;20422;-58
2022/07/22 05:44:28;;;;;;;10.35;6.32;;;;;;;33.04;50.43;100708.38;4198474;28;20098;-58
2022/07/22 05:46:30;;;;;;;11.93;7.53;;;;;;;32.97;50.49;100703.34;4198233;28;20037;-58
2022/07/22 05:48:31;;;;;;;9.52;6.55;;;;;;;33.03;50.41;100709.53;4198471;28;20036;-58
2022/07/22 05:50:32;;;;;;;10.38;6.65;;;;;;;32.98;50.39;100709.84;4198132;28;20154;-58
2022/07/22 05:52:38;;;;;;;8.88;7.03;;;;;;;33.00;50.44;100713.97;4198543;28;20029;-58
2022/07/22 05:54:39;;;;;;;14.13;7.07;;;;;;;33.00;50.52;100718.81;4198299;28;20447;-58
2022/07/22 05:56:44;;;;;;;9.07;6.50;;;;;;;32.99;50.63;100718.00;4198466;28;20028;-58
2022/07/22 05:58:45;;;;;;;8.90;6.32;;;;;;;32.99;50.61;100722.81;4198108;28;20028;-58
2022/07/22 06:00:46;;;;;;;9.18;6.55;;;;;;;32.98;50.72;100721.19;4197984;28;20467;-58
2022/07/22 06:02:48;;;;;;;9.80;6.80;;;;;;;32.99;50.43;100722.81;4214816;28;20074;-58
2022/07/22 06:04:49;;;;;;;7.93;7.10;;;;;;;32.98;50.62;100735.34;4214922;28;20040;-58
2022/07/22 06:06:50;;;;;;;9.00;7.18;;;;;;;32.97;50.39;100730.88;4214473;28;20101;-58
2022/07/22 06:08:52;;;;;;;9.60;6.28;;;;;;;32.97;50.53;100733.72;4214471;28;20089;-58
2022/07/22 06:10:53;;;;;;;9.52;5.57;;;;;;;32.96;50.60;100723.56;4214652;28;20040;-58
2022/07/22 06:12:54;;;;;;;8.45;6.13;;;;;;;32.95;50.11;100733.28;4214914;28;20044;-58
2022/07/22 06:14:55;;;;;;;8.18;5.80;;;;;;;32.94;50.31;100738.09;4214434;28;20485;-58
2022/07/22 06:16:57;;;;;;;10.15;6.57;;;;;;;32.94;50.58;100732.41;4214949;28;20117;-58
2022/07/22 06:19:04;;;;;;;9.85;6.25;;;;;;;32.95;50.65;100747.44;4214527;28;20040;-58
2022/07/22 06:21:07;;;;;;;7.97;5.70;;;;;;;32.95;50.61;100736.09;4214462;28;20437;-58
2022/07/22 06:23:09;;;;;;;7.05;5.22;;;;;;;32.95;50.53;100741.78;4214413;28;20044;-58
2022/07/22 06:25:13;;;;;;;7.00;5.78;;;;;;;32.91;50.44;100735.19;4214685;28;20142;-58
2022/07/22 06:27:17;;;;;;;7.30;6.10;;;;;;;32.93;50.70;100749.81;4213677;28;20097;-58
2022/07/22 06:29:18;;;;;;;9.57;6.00;;;;;;;32.91;50.71;100740.88;4214472;28;20036;-58
2022/07/22 06:31:19;;;;;;;10.98;6.28;;;;;;;32.93;50.42;100741.31;4210688;28;20040;-58
2022/07/22 06:33:23;;;;;;;10.20;6.35;;;;;;;32.93;50.45;100752.66;4214230;28;20032;-58
2022/07/22 06:35:24;;;;;;;6.90;6.20;;;;;;;32.92;50.72;100746.16;4214608;28;20074;-58
2022/07/22 06:37:26;;;;;;;6.60;5.90;;;;;;;32.93;50.40;100742.13;4214270;28;20089;-58
2022/07/22 06:39:27;;;;;;;10.35;7.20;;;;;;;32.93;50.81;100744.13;4213891;28;20093;-58
2022/07/22 06:41:32;;;;;;;8.20;6.68;;;;;;;32.94;50.43;100742.94;4214593;28;20035;-58
2022/07/22 06:43:36;;;;;;;10.45;6.40;;;;;;;32.93;50.79;100742.13;4213236;28;20040;-58
2022/07/22 06:45:37;;;;;;;6.93;6.00;;;;;;;32.92;50.50;100743.31;4214463;28;20032;-58
2022/07/22 06:47:38;;;;;;;10.13;5.80;;;;;;;32.91;50.41;100749.38;4214358;28;20161;-58
2022/07/22 06:49:42;;;;;;;8.52;6.07;;;;;;;32.89;50.76;100753.34;4213787;28;20101;-58
2022/07/22 06:51:44;;;;;;;7.40;5.80;;;;;;;32.91;50.77;100755.84;4214005;28;20036;-58
2022/07/22 06:53:48;;;;;;;7.43;5.93;;;;;;;32.91;50.92;100755.84;4214466;28;20089;-58
2022/07/22 06:55:49;;;;;;;;;;;;;;;32.88;50.83;100750.88;4214501;28;20537;-58
2022/07/22 06:57:56;;;;;;;8.73;6.30;;;;;;;32.90;50.84;100754.19;4214398;28;19958;-58
2022/07/22 06:59:58;;;;;;;8.27;6.22;;;;;;;32.94;51.11;100751.44;4212955;28;20521;-58
2022/07/22 07:02:01;;;;;;;9.40;6.35;;;;;;;32.92;51.07;100748.16;4201301;28;20044;-58
2022/07/22 07:04:03;;;;;;;7.72;6.28;;;;;;;32.91;51.27;100752.19;4197925;28;20036;-59
2022/07/22 07:06:11;;;;;;;9.05;6.20;;;;;;;32.83;51.26;100749.16;4197405;28;20102;-58
2022/07/22 07:08:12;;;;;;;8.48;6.78;;;;;;;32.88;51.23;100763.03;4196210;28;20074;-58
2022/07/22 07:10:15;;;;;;;7.03;6.30;;;;;;;32.87;51.36;100750.06;4197229;28;20044;-58
2022/07/22 07:12:16;;;;;;;8.65;5.97;;;;;;;32.85;51.38;100751.59;4197575;28;20106;-58
2022/07/22 07:14:18;;;;;;;9.48;6.45;;;;;;;32.87;51.35;100750.06;4197389;28;20365;-58
2022/07/22 07:16:19;;;;;;;7.18;5.97;;;;;;;32.76;51.04;100737.66;4197455;28;20040;-59
2022/07/22 07:18:20;;;;;;;8.70;5.70;;;;;;;32.85;51.11;100762.94;4197352;28;20441;-58
2022/07/22 07:20:23;;;;;;;9.65;6.30;;;;;;;32.85;51.00;100769.47;4197091;28;20044;-59
2022/07/22 07:22:27;;;;;;;7.72;5.20;;;;;;;32.80;51.16;100761.22;4197442;28;20078;-60
2022/07/22 07:24:31;;;;;;;10.43;6.20;;;;;;;32.83;51.08;100769.00;4197403;28;20036;-60
2022/07/22 07:26:32;;;;;;;7.55;6.53;;;;;;;32.83;51.51;100771.81;4196973;28;20044;-59
2022/07/22 07:28:33;;;;;;;8.68;6.22;;;;;;;32.75;51.42;100758.66;4197004;28;20549;-59
2022/07/22 07:30:35;;;;;;;7.82;6.13;;;;;;;32.82;51.30;100770.19;4199193;28;20044;-59
2022/07/22 07:32:37;;;;;;;9.05;6.53;;;;;;;32.83;51.57;100771.00;4213061;28;20036;-59
2022/07/22 07:34:41;;;;;;;6.50;5.90;;;;;;;32.79;51.18;100765.25;4214075;28;20036;-59
2022/07/22 07:36:42;;;;;;;6.55;5.88;;;;;;;32.81;51.22;100773.41;4212958;28;20040;-60
2022/07/22 07:38:43;;;;;;;8.68;6.25;;;;;;;32.82;51.62;100778.69;4216057;28;20036;-59
2022/07/22 07:40:45;;;;;;;9.73;6.70;;;;;;;32.80;51.63;100789.53;4217263;28;20044;-59
2022/07/22 07:42:46;;;;;;;7.68;6.57;;;;;;;32.80;51.55;100786.72;4217175;28;20078;-60
2022/07/22 07:44:48;;;;;;;7.35;6.40;;;;;;;32.79;51.57;100787.91;4217169;28;20501;-59
2022/07/22 07:46:49;;;;;;;8.45;6.25;;;;;;;32.79;51.61;100787.91;4204347;28;20044;-59
2022/07/22 07:48:50;;;;;;;10.35;5.90;;;;;;;32.80;51.80;100800.06;4200128;28;20044;-59
2022/07/22 07:50:52;;;;;;;7.53;5.75;;;;;;;32.80;51.75;100803.72;4199274;28;20090;-59
2022/07/22 07:52:53;;;;;;;9.70;5.55;;;;;;;32.79;51.76;100804.91;4200619;28;20020;-60
2022/07/22 07:54:55;;;;;;;8.75;6.90;;;;;;;32.78;51.81;100806.09;4200422;28;20041;-59
2022/07/22 07:56:56;;;;;;;9.05;6.18;;;;;;;32.77;51.63;100807.31;4200000;28;20117;-59
2022/07/22 07:59:01;;;;;;;10.18;6.32;;;;;;;32.71;51.66;100796.59;4199647;28;20049;-59
2022/07/22 08:01:02;;;;;;;7.43;6.22;;;;;;;32.76;51.42;100808.50;4206408;28;20123;-60
2022/07/22 08:03:04;;;;;;;9.00;5.85;;;;;;;32.76;51.32;100814.16;4215951;28;20471;-59
2022/07/22 08:05:06;;;;;;;8.30;5.97;;;;;;;32.76;51.30;100822.66;4216216;28;20044;-59
2022/07/22 08:07:07;;;;;;;10.70;5.93;;;;;;;32.77;51.64;100818.63;4216803;28;20098;-59
2022/07/22 08:09:10;;;;;;;8.05;6.18;;;;;;;32.72;51.54;100809.59;4216075;28;20426;-60
2022/07/22 08:11:11;;;;;;;9.38;6.63;;;;;;;32.77;51.88;100827.13;4216977;28;20109;-59
2022/07/22 08:13:15;;;;;;;7.55;6.78;;;;;;;32.73;51.60;100825.41;4216425;28;20075;-59
2022/07/22 08:15:17;;;;;;;7.82;6.57;;;;;;;32.76;51.75;100833.16;4216355;28;20094;-59
2022/07/22 08:17:18;;;;;;;6.72;6.03;;;;;;;32.76;51.30;100828.34;4216329;28;20081;-59
2022/07/22 08:19:19;;;;;;;8.20;6.45;;;;;;;32.75;51.51;100829.50;4216368;28;20035;-59
2022/07/22 08:21:21;;;;;;;8.38;6.35;;;;;;;32.75;51.52;100838.00;4216235;28;20036;-59
2022/07/22 08:23:22;;;;;;;11.13;6.65;;;;;;;32.73;51.48;100829.06;4216341;28;20036;-59
2022/07/22 08:25:24;;;;;;;8.55;6.03;;;;;;;32.75;51.16;100831.50;4216206;28;20437;-59
2022/07/22 08:27:25;;;;;;;6.82;5.97;;;;;;;32.71;51.20;100831.41;4216439;28;20044;-59
2022/07/22 08:29:30;;;;;;;9.20;6.55;;;;;;;32.73;51.13;100840.38;4216317;28;20410;-59
2022/07/22 08:31:34;;;;;;;9.02;6.30;;;;;;;32.73;50.94;100831.88;4214907;28;20149;-60
2022/07/22 08:33:39;;;;;;;8.82;5.95;;;;;;;32.73;50.55;100834.72;4216457;28;20093;-59
2022/07/22 08:35:40;;;;;;;;;;;;;;;32.71;50.60;100842.75;4215166;28;20595;-59
2022/07/22 08:37:42;;;;;;;7.70;6.50;;;;;;;32.76;50.37;100839.66;4216034;28;19973;-60
2022/07/22 08:39:46;;;;;;;12.65;6.70;;;;;;;32.73;50.29;100839.56;4215358;28;20101;-59
2022/07/22 08:41:50;;;;;;;7.63;6.05;;;;;;;32.67;50.08;100841.84;4216493;28;20039;-59
2022/07/22 08:43:52;;;;;;;6.93;6.22;;;;;;;32.66;50.38;100836.53;4216294;28;20098;-59
2022/07/22 08:45:57;;;;;;;8.20;6.35;;;;;;;32.67;49.95;100841.84;4216311;28;20090;-59
2022/07/22 08:47:59;;;;;;;11.02;6.70;;;;;;;32.71;49.95;100854.09;4215888;28;20044;-59
2022/07/22 08:50:01;;;;;;;7.70;6.45;;;;;;;32.64;49.74;100851.91;4214455;28;20035;-59
2022/07/22 08:52:05;;;;;;;8.85;6.88;;;;;;;32.70;49.92;100863.78;4215930;28;20044;-60
2022/07/22 08:54:06;;;;;;;8.43;6.53;;;;;;;32.69;49.84;100855.66;4215915;28;20040;-59
2022/07/22 08:56:07;;;;;;;8.38;6.60;;;;;;;32.68;49.49;100862.50;4215712;28;20032;-59
2022/07/22 08:58:09;;;;;;;6.75;6.05;;;;;;;32.63;49.32;100857.94;4215465;28;20040;-59
2022/07/22 09:00:13;;;;;;;7.30;6.55;;;;;;;32.66;49.60;100868.53;4215287;28;20094;-59
2022/07/22 09:02:17;;;;;;;7.72;6.47;;;;;;;32.62;49.40;100867.59;4199486;28;20594;-59
2022/07/22 09:04:19;;;;;;;7.72;6.32;;;;;;;32.65;49.37;100872.53;4199126;28;20040;-59
2022/07/22 09:06:25;;;;;;;10.65;6.47;;;;;;;32.64;49.24;100876.56;4198887;28;20114;-59
2022/07/22 09:08:26;;;;;;;11.30;6.50;;;;;;;32.64;49.19;100882.25;4199216;28;20098;-59
2022/07/22 09:10:32;;;;;;;8.73;7.05;;;;;;;32.63;49.11;100883.44;4198924;28;20094;-60
2022/07/22 09:12:34;;;;;;;8.05;7.25;;;;;;;32.63;48.99;100883.44;4199073;28;20094;-59
2022/07/22 09:14:53;;;;;;;7.85;6.88;;;;;;;32.61;49.08;100888.63;4199156;28;20397;-59
2022/07/22 09:16:54;;;;;;;7.50;6.72;;;;;;;32.61;49.06;100891.44;4199073;28;20037;-59
2022/07/22 09:18:58;;;;;;;10.27;6.72;;;;;;;32.60;48.87;100892.66;4198375;28;20036;-59
2022/07/22 09:20:59;;;;;;;7.75;6.95;;;;;;;32.60;48.74;100898.31;4199238;28;20032;-59
2022/07/22 09:23:02;;;;;;;8.45;6.88;;;;;;;32.59;48.42;100908.81;4198891;28;20430;-59
2022/07/22 09:25:25;;;;;;;7.70;6.97;;;;;;;32.58;48.58;100906.38;4199090;28;20383;-59
2022/07/22 09:27:27;;;;;;;8.50;6.97;;;;;;;32.57;48.35;100910.34;4198953;28;20438;-59
2022/07/22 09:29:28;;;;;;;7.47;6.72;;;;;;;32.57;48.19;100913.19;4198582;28;20037;-59